Colorado Star — 9HA2189 — position and weather

sailwx.info

Track history (hours):
 
Tides and Currents Weather Stations Pressure Air Temp Water Temp Dewpoint Dewpoint Depression Visibility Wind Speed Wind Dir Waves Ship Positions

Colorado Star

Last reported at 2017-Jan-19 09:33 UTC. Time now 2017-Jan-19 13:09 UTC.
Position N 54°32' E 010°26'.

Length 128 m; draft 8 m.

Type: Ship. MMSI: 248127000.

Date/timePositionNaut miles runAvg speedWind from/ knotsBaromVisibWave heightAir tempDewpointWater temp
2017-Jan-19 09:33N 54°32' E 010°26'1111.2
2017-Jan-19 08:33N 54°35' E 010°45'1111.4
2017-Jan-19 07:33N 54°36' E 011°05'1111.1
2017-Jan-19 06:33N 54°32' E 011°23'1211.5
2017-Jan-19 05:33N 54°28' E 011°41'1110.8
2017-Jan-19 04:33N 54°26' E 011°59'9 8.7
2017-Jan-19 03:33N 54°31' E 012°12'1010.4
2017-Jan-19 02:34N 54°40' E 012°21'5410.3
2017-Jan-18 21:18N 54°43' E 013°55'2211.4
2017-Jan-18 19:20N 54°39' E 014°33'911.0
2017-Jan-18 18:32N 54°40' E 014°48'11210.8
2017-Jan-18 08:11N 54°57' E 018°00'711.0
2017-Jan-18 07:33N 54°57' E 018°12'1111.3
2017-Jan-18 06:33N 54°58' E 018°32'1111.4
2017-Jan-18 05:33N 54°51' E 018°48'1111.3
2017-Jan-18 04:33N 54°44' E 019°03'1111.0
2017-Jan-18 03:33N 54°33' E 019°04'1110.8
2017-Jan-18 02:33N 54°25' E 018°51'4 4.4
2017-Jan-18 01:33N 54°24' E 018°43'0 0.0
2017-Jan-18 00:33N 54°24' E 018°43'0 0.0
2017-Jan-17 23:33N 54°24' E 018°43'0 0.0
2017-Jan-17 22:33N 54°24' E 018°43'0 0.0
2017-Jan-17 21:33N 54°24' E 018°43'0 0.0
2017-Jan-17 20:30N 54°24' E 018°43'0 0.0
2017-Jan-17 19:33N 54°24' E 018°43'0 0.0
2017-Jan-17 18:33N 54°24' E 018°43'0 0.0
2017-Jan-17 17:33N 54°24' E 018°43'0 0.0
2017-Jan-17 16:33N 54°24' E 018°43'0 0.0
2017-Jan-17 15:30N 54°24' E 018°43'0 0.0
2017-Jan-17 14:33N 54°24' E 018°43'0 0.0
2017-Jan-17 13:33N 54°24' E 018°43'0 0.0
2017-Jan-17 12:33N 54°24' E 018°43'0 0.0
2017-Jan-17 11:30N 54°24' E 018°43'0 0.0
2017-Jan-17 10:33N 54°24' E 018°43'0 0.0
2017-Jan-17 09:33N 54°24' E 018°43'0 0.0
2017-Jan-17 08:33N 54°24' E 018°43'0 0.0
2017-Jan-17 07:33N 54°24' E 018°43'0 0.0
2017-Jan-17 06:33N 54°24' E 018°43'0 0.0
2017-Jan-17 05:33N 54°24' E 018°43'0 0.0
2017-Jan-17 04:33N 54°24' E 018°43'0 0.0
2017-Jan-17 03:33N 54°24' E 018°43'0 0.0
2017-Jan-17 02:33N 54°24' E 018°43'6 6.1
2017-Jan-17 01:33N 54°26' E 018°53'1211.8
2017-Jan-17 00:33N 54°36' E 019°04'1111.5
2017-Jan-16 23:33N 54°46' E 018°55'1212.3
2017-Jan-16 22:34N 54°55' E 018°40'1111.3
2017-Jan-16 21:34N 54°57' E 018°20'1211.9
2017-Jan-16 20:33N 54°56' E 017°59'9811.8
2017-Jan-16 12:14N 54°49' E 015°10'812.0
2017-Jan-16 11:34N 54°49' E 014°56'1212.0
2017-Jan-16 10:34N 54°51' E 014°35'1212.2
2017-Jan-16 09:33N 54°55' E 014°15'1312.5
2017-Jan-16 08:32N 54°59' E 013°54'3711.9
2017-Jan-16 05:26N 55°14' E 012°55'1011.8
2017-Jan-16 04:33N 55°19' E 012°39'1212.2
2017-Jan-16 03:33N 55°31' E 012°42'9 8.6
2017-Jan-16 02:33N 55°39' E 012°41'1111.3
2017-Jan-16 01:33N 55°51' E 012°41'1211.6
2017-Jan-16 00:34N 56°02' E 012°38'1010.0
2017-Jan-15 23:34N 56°09' E 012°26'1312.4
2017-Jan-15 22:33N 56°16' E 012°07'6112.2
2017-Jan-15 17:33N 57°14' E 011°33'1312.6
2017-Jan-15 16:33N 57°26' E 011°25'1212.2
2017-Jan-15 15:33N 57°35' E 011°10'1212.3
2017-Jan-15 14:33N 57°43' E 010°53'1212.0
2017-Jan-15 13:33N 57°48' E 010°32'  
2017-Jan-13 04:33N 54°49' W 001°01'0 0.1
2017-Jan-13 01:12N 54°49' W 001°00'1 2.1
2017-Jan-13 00:33N 54°50' W 001°02'2 1.7
2017-Jan-12 23:32N 54°51' W 001°04'3 2.7
2017-Jan-12 22:33N 54°49' W 001°02'2 0.3
2017-Jan-12 15:33N 54°49' W 001°06'1 1.4
2017-Jan-12 14:33N 54°50' W 001°08'8 6.3
2017-Jan-12 13:20N 54°52' W 000°55'1 1.4
2017-Jan-12 12:29N 54°52' W 000°57'1 1.1
2017-Jan-12 11:31N 54°51' W 000°58'1 1.0
2017-Jan-12 10:30N 54°51' W 000°60'1 1.0
2017-Jan-12 09:33N 54°50' W 001°01'1 1.1
2017-Jan-12 08:33N 54°49' W 001°02'1 1.1
2017-Jan-12 07:33N 54°48' W 001°03'27 0.7
2017-Jan-10 18:29N 54°31' W 000°27'1112.3
2017-Jan-10 17:34N 54°22' W 000°15'1211.7
2017-Jan-10 16:34N 54°13' W 000°02'1110.9
2017-Jan-10 15:34N 54°04' E 000°07'1110.7
2017-Jan-10 14:33N 53°54' E 000°13'20 6.6
2017-Jan-10 11:33N 53°34' E 000°06'1010.2
2017-Jan-10 10:33N 53°38' W 000°09'2 2.1
2017-Jan-10 09:31N 53°39' W 000°13'0 0.0
2017-Jan-10 08:31N 53°39' W 000°13'0 0.0
2017-Jan-10 07:31N 53°39' W 000°13'0 0.0
2017-Jan-10 06:31N 53°39' W 000°13'0 0.0
2017-Jan-10 05:28N 53°39' W 000°13'0 0.0
2017-Jan-10 04:31N 53°39' W 000°13'0 0.0
2017-Jan-10 03:31N 53°39' W 000°13'0 0.0
2017-Jan-10 02:31N 53°39' W 000°13'0 0.0
2017-Jan-10 01:31N 53°39' W 000°13'0 0.0
2017-Jan-10 00:31N 53°39' W 000°13'0 0.0
2017-Jan-09 23:31N 53°39' W 000°13'0 0.0
2017-Jan-09 22:31N 53°39' W 000°13'0 0.0
2017-Jan-09 21:31N 53°39' W 000°13'0 0.0
2017-Jan-09 20:31N 53°39' W 000°13'0 0.0
2017-Jan-09 19:31N 53°39' W 000°13'0 0.0
2017-Jan-09 18:31N 53°39' W 000°13'0 0.0
2017-Jan-09 17:31N 53°39' W 000°13'0 0.0
2017-Jan-09 16:31N 53°39' W 000°13'0 0.0
2017-Jan-09 15:31N 53°39' W 000°13'0 0.0
2017-Jan-09 14:31N 53°39' W 000°13'0 0.0
2017-Jan-09 13:31N 53°39' W 000°13'0 0.0
2017-Jan-09 12:31N 53°39' W 000°13'0 0.0
2017-Jan-09 11:31N 53°39' W 000°13'0 0.0
2017-Jan-09 10:28N 53°39' W 000°13'  
Track history (hours):
 
Tides and Currents Weather Stations Pressure Air Temp Water Temp Dewpoint Dewpoint Depression Visibility Wind Speed Wind Dir Waves Ship Positions

Colorado Star

Last reported at 2017-Jan-19 09:33 UTC. Time now 2017-Jan-19 13:09 UTC.
Position N 54°32' E 010°26'.

Length 128 m; draft 8 m.

Type: Ship. MMSI: 248127000.

Date/timePositionNaut miles runAvg speedWind from/ knotsBaromVisibWave heightAir tempDewpointWater temp
2017-Jan-19 09:33N 54°32' E 010°26'1111.2
2017-Jan-19 08:33N 54°35' E 010°45'1111.4
2017-Jan-19 07:33N 54°36' E 011°05'1111.1
2017-Jan-19 06:33N 54°32' E 011°23'1211.5
2017-Jan-19 05:33N 54°28' E 011°41'1110.8
2017-Jan-19 04:33N 54°26' E 011°59'9 8.7
2017-Jan-19 03:33N 54°31' E 012°12'1010.4
2017-Jan-19 02:34N 54°40' E 012°21'5410.3
2017-Jan-18 21:18N 54°43' E 013°55'2211.4
2017-Jan-18 19:20N 54°39' E 014°33'911.0
2017-Jan-18 18:32N 54°40' E 014°48'11210.8
2017-Jan-18 08:11N 54°57' E 018°00'711.0
2017-Jan-18 07:33N 54°57' E 018°12'1111.3
2017-Jan-18 06:33N 54°58' E 018°32'1111.4
2017-Jan-18 05:33N 54°51' E 018°48'1111.3
2017-Jan-18 04:33N 54°44' E 019°03'1111.0
2017-Jan-18 03:33N 54°33' E 019°04'1110.8
2017-Jan-18 02:33N 54°25' E 018°51'4 4.4
2017-Jan-18 01:33N 54°24' E 018°43'0 0.0
2017-Jan-18 00:33N 54°24' E 018°43'0 0.0
2017-Jan-17 23:33N 54°24' E 018°43'0 0.0
2017-Jan-17 22:33N 54°24' E 018°43'0 0.0
2017-Jan-17 21:33N 54°24' E 018°43'0 0.0
2017-Jan-17 20:30N 54°24' E 018°43'0 0.0
2017-Jan-17 19:33N 54°24' E 018°43'0 0.0
2017-Jan-17 18:33N 54°24' E 018°43'0 0.0
2017-Jan-17 17:33N 54°24' E 018°43'0 0.0
2017-Jan-17 16:33N 54°24' E 018°43'0 0.0
2017-Jan-17 15:30N 54°24' E 018°43'0 0.0
2017-Jan-17 14:33N 54°24' E 018°43'0 0.0
2017-Jan-17 13:33N 54°24' E 018°43'0 0.0
2017-Jan-17 12:33N 54°24' E 018°43'0 0.0
2017-Jan-17 11:30N 54°24' E 018°43'0 0.0
2017-Jan-17 10:33N 54°24' E 018°43'0 0.0
2017-Jan-17 09:33N 54°24' E 018°43'0 0.0
2017-Jan-17 08:33N 54°24' E 018°43'0 0.0
2017-Jan-17 07:33N 54°24' E 018°43'0 0.0
2017-Jan-17 06:33N 54°24' E 018°43'0 0.0
2017-Jan-17 05:33N 54°24' E 018°43'0 0.0
2017-Jan-17 04:33N 54°24' E 018°43'0 0.0
2017-Jan-17 03:33N 54°24' E 018°43'0 0.0
2017-Jan-17 02:33N 54°24' E 018°43'6 6.1
2017-Jan-17 01:33N 54°26' E 018°53'1211.8
2017-Jan-17 00:33N 54°36' E 019°04'1111.5
2017-Jan-16 23:33N 54°46' E 018°55'1212.3
2017-Jan-16 22:34N 54°55' E 018°40'1111.3
2017-Jan-16 21:34N 54°57' E 018°20'1211.9
2017-Jan-16 20:33N 54°56' E 017°59'9811.8
2017-Jan-16 12:14N 54°49' E 015°10'812.0
2017-Jan-16 11:34N 54°49' E 014°56'1212.0
2017-Jan-16 10:34N 54°51' E 014°35'1212.2
2017-Jan-16 09:33N 54°55' E 014°15'1312.5
2017-Jan-16 08:32N 54°59' E 013°54'3711.9
2017-Jan-16 05:26N 55°14' E 012°55'1011.8
2017-Jan-16 04:33N 55°19' E 012°39'1212.2
2017-Jan-16 03:33N 55°31' E 012°42'9 8.6
2017-Jan-16 02:33N 55°39' E 012°41'1111.3
2017-Jan-16 01:33N 55°51' E 012°41'1211.6
2017-Jan-16 00:34N 56°02' E 012°38'1010.0
2017-Jan-15 23:34N 56°09' E 012°26'1312.4
2017-Jan-15 22:33N 56°16' E 012°07'6112.2
2017-Jan-15 17:33N 57°14' E 011°33'1312.6
2017-Jan-15 16:33N 57°26' E 011°25'1212.2
2017-Jan-15 15:33N 57°35' E 011°10'1212.3
2017-Jan-15 14:33N 57°43' E 010°53'1212.0
2017-Jan-15 13:33N 57°48' E 010°32'  
2017-Jan-13 04:33N 54°49' W 001°01'0 0.1
2017-Jan-13 01:12N 54°49' W 001°00'1 2.1
2017-Jan-13 00:33N 54°50' W 001°02'2 1.7
2017-Jan-12 23:32N 54°51' W 001°04'3 2.7
2017-Jan-12 22:33N 54°49' W 001°02'2 0.3
2017-Jan-12 15:33N 54°49' W 001°06'1 1.4
2017-Jan-12 14:33N 54°50' W 001°08'8 6.3
2017-Jan-12 13:20N 54°52' W 000°55'1 1.4
2017-Jan-12 12:29N 54°52' W 000°57'1 1.1
2017-Jan-12 11:31N 54°51' W 000°58'1 1.0
2017-Jan-12 10:30N 54°51' W 000°60'1 1.0
2017-Jan-12 09:33N 54°50' W 001°01'1 1.1
2017-Jan-12 08:33N 54°49' W 001°02'1 1.1
2017-Jan-12 07:33N 54°48' W 001°03'27 0.7
2017-Jan-10 18:29N 54°31' W 000°27'1112.3
2017-Jan-10 17:34N 54°22' W 000°15'1211.7
2017-Jan-10 16:34N 54°13' W 000°02'1110.9
2017-Jan-10 15:34N 54°04' E 000°07'1110.7
2017-Jan-10 14:33N 53°54' E 000°13'20 6.6
2017-Jan-10 11:33N 53°34' E 000°06'1010.2
2017-Jan-10 10:33N 53°38' W 000°09'2 2.1
2017-Jan-10 09:31N 53°39' W 000°13'0 0.0
2017-Jan-10 08:31N 53°39' W 000°13'0 0.0
2017-Jan-10 07:31N 53°39' W 000°13'0 0.0
2017-Jan-10 06:31N 53°39' W 000°13'0 0.0
2017-Jan-10 05:28N 53°39' W 000°13'0 0.0
2017-Jan-10 04:31N 53°39' W 000°13'0 0.0
2017-Jan-10 03:31N 53°39' W 000°13'0 0.0
2017-Jan-10 02:31N 53°39' W 000°13'0 0.0
2017-Jan-10 01:31N 53°39' W 000°13'0 0.0
2017-Jan-10 00:31N 53°39' W 000°13'0 0.0
2017-Jan-09 23:31N 53°39' W 000°13'0 0.0
2017-Jan-09 22:31N 53°39' W 000°13'0 0.0
2017-Jan-09 21:31N 53°39' W 000°13'0 0.0
2017-Jan-09 20:31N 53°39' W 000°13'0 0.0
2017-Jan-09 19:31N 53°39' W 000°13'0 0.0
2017-Jan-09 18:31N 53°39' W 000°13'0 0.0
2017-Jan-09 17:31N 53°39' W 000°13'0 0.0
2017-Jan-09 16:31N 53°39' W 000°13'0 0.0
2017-Jan-09 15:31N 53°39' W 000°13'0 0.0
2017-Jan-09 14:31N 53°39' W 000°13'0 0.0
2017-Jan-09 13:31N 53°39' W 000°13'0 0.0
2017-Jan-09 12:31N 53°39' W 000°13'0 0.0
2017-Jan-09 11:31N 53°39' W 000°13'0 0.0
2017-Jan-09 10:28N 53°39' W 000°13'  

Dump ship's entire track history